Time;durP1;ratioP1;P1;durP2;ratioP2;P2;SDS_P1;SDS_P2;PMS_P1;PMS_P2;Temp;Humidity;BMP_temperature;BMP_pressure;BME280_temperature;BME280_humidity;BME280_pressure;Samples;Min_cycle;Max_cycle;Signal;HPM_P1;HPM_P2
2023/08/22 00:00:31;;;;;;;9.70;7.10;;;;;;;22.45;100.00;99562.59;109412;1251;73095;-75
2023/08/22 00:02:59;;;;;;;8.20;7.30;;;;;;;22.46;100.00;99564.66;109373;1255;60083;-75
2023/08/22 00:05:27;;;;;;;8.00;7.00;;;;;;;22.47;100.00;99563.11;109435;1251;58931;-74
2023/08/22 00:07:54;;;;;;;7.20;6.40;;;;;;;22.48;100.00;99562.00;109431;1251;73947;-74
2023/08/22 00:10:22;;;;;;;7.20;6.50;;;;;;;22.46;100.00;99555.86;109431;1251;71143;-75
2023/08/22 00:12:50;;;;;;;11.10;7.00;;;;;;;22.44;100.00;99556.73;109378;1252;72634;-75
2023/08/22 00:15:17;;;;;;;11.80;7.50;;;;;;;22.40;100.00;99553.38;109426;1250;60404;-75
2023/08/22 00:17:45;;;;;;;8.20;6.80;;;;;;;22.34;100.00;99554.17;109445;1251;59224;-74
2023/08/22 00:20:13;;;;;;;11.30;7.40;;;;;;;22.31;100.00;99555.89;109402;1251;74633;-75
2023/08/22 00:22:41;;;;;;;12.60;7.30;;;;;;;22.28;100.00;99557.55;109402;1253;69141;-74
2023/08/22 00:25:09;;;;;;;12.60;7.60;;;;;;;22.21;100.00;99559.64;109421;1251;72652;-74
2023/08/22 00:27:37;;;;;;;8.00;7.00;;;;;;;22.16;100.00;99561.34;109413;1251;61820;-74
2023/08/22 00:30:06;;;;;;;8.30;7.00;;;;;;;22.09;100.00;99558.33;109400;1252;59019;-74
2023/08/22 00:32:33;;;;;;;8.70;7.20;;;;;;;22.02;100.00;99559.61;109426;1251;73389;-74
2023/08/22 00:35:01;;;;;;;10.60;7.50;;;;;;;21.96;100.00;99561.38;109444;1251;70798;-74
2023/08/22 00:37:29;;;;;;;11.10;6.70;;;;;;;21.93;100.00;99557.40;109411;1252;72730;-75
2023/08/22 00:39:57;;;;;;;8.00;7.00;;;;;;;21.88;100.00;99560.77;109407;1252;61200;-74
2023/08/22 00:42:25;;;;;;;15.60;7.70;;;;;;;21.83;100.00;99563.09;109423;1254;59941;-74
2023/08/22 00:44:55;;;;;;;10.10;7.30;;;;;;;21.80;100.00;99560.50;109398;1251;74662;-74
2023/08/22 00:47:23;;;;;;;8.80;7.30;;;;;;;21.79;100.00;99564.53;109429;1251;69802;-74
2023/08/22 00:49:51;;;;;;;9.40;7.10;;;;;;;21.77;100.00;99560.05;109011;1251;449085;-75
2023/08/22 00:52:21;;;;;;;9.10;7.10;;;;;;;21.74;100.00;99561.31;109127;1253;60482;-74
2023/08/22 00:54:49;;;;;;;16.10;7.30;;;;;;;21.72;100.00;99557.26;109366;1251;60028;-74
2023/08/22 00:57:16;;;;;;;8.20;7.10;;;;;;;21.69;100.00;99562.48;109405;1251;73867;-75
2023/08/22 00:59:43;;;;;;;12.70;6.90;;;;;;;21.66;100.00;99565.19;109437;1251;72583;-74
2023/08/22 01:02:11;;;;;;;10.10;6.80;;;;;;;21.64;100.00;99569.14;109374;1251;72455;-74
2023/08/22 01:04:39;;;;;;;6.70;6.10;;;;;;;21.62;100.00;99573.70;109422;1251;60403;-74
2023/08/22 01:07:15;;;;;;;11.20;6.70;;;;;;;21.60;100.00;99572.27;109381;1251;60706;-74
2023/08/22 01:10:28;;;;;;;11.20;7.40;;;;;;;21.58;100.00;99567.46;109438;1251;73439;-75
2023/08/22 01:13:16;;;;;;;11.90;6.70;;;;;;;21.56;100.00;99566.39;109457;1253;69967;-75
2023/08/22 01:15:43;;;;;;;8.70;6.80;;;;;;;21.54;100.00;99580.13;109459;1251;70367;-74
2023/08/22 01:18:13;;;;;;;9.20;6.40;;;;;;;21.50;100.00;99582.36;109363;1253;60076;-74
2023/08/22 01:20:41;;;;;;;10.00;6.40;;;;;;;21.48;100.00;99582.84;109189;1253;60054;-74
2023/08/22 01:23:08;;;;;;;9.80;7.10;;;;;;;21.46;100.00;99589.39;109384;1251;72596;-75
2023/08/22 01:25:35;;;;;;;9.40;6.50;;;;;;;21.46;100.00;99586.23;109380;1251;70962;-75
2023/08/22 01:28:26;;;;;;;10.90;6.80;;;;;;;21.44;100.00;99589.75;109391;1251;72702;-74
2023/08/22 01:31:12;;;;;;;6.90;6.20;;;;;;;21.41;100.00;99590.70;109116;1251;59309;-75
2023/08/22 01:33:45;;;;;;;7.30;6.60;;;;;;;21.37;100.00;99593.86;109418;1253;59042;-74
2023/08/22 01:36:13;;;;;;;9.50;6.50;;;;;;;21.37;100.00;99595.67;109245;1250;73457;-74
2023/08/22 01:38:40;;;;;;;6.20;5.60;;;;;;;21.38;100.00;99595.55;109431;1251;71123;-75
2023/08/22 01:41:08;;;;;;;7.70;5.90;;;;;;;21.40;100.00;99588.11;109402;1252;71470;-75
2023/08/22 01:43:36;;;;;;;7.00;6.40;;;;;;;21.42;100.00;99583.47;109393;1251;59995;-75
2023/08/22 01:46:05;;;;;;;7.70;6.20;;;;;;;21.40;100.00;99584.88;109419;1251;60085;-75
2023/08/22 01:48:33;;;;;;;13.60;6.50;;;;;;;21.37;100.00;99591.90;109415;1251;72523;-75
2023/08/22 01:51:00;;;;;;;6.70;5.90;;;;;;;21.35;100.00;99594.02;109406;1251;70822;-74
2023/08/22 01:53:28;;;;;;;8.70;6.70;;;;;;;21.31;100.00;99606.09;109463;1253;72466;-74
2023/08/22 01:55:59;;;;;;;17.60;8.10;;;;;;;21.28;100.00;99607.78;109398;1251;59281;-74
2023/08/22 01:58:27;;;;;;;10.20;7.10;;;;;;;21.25;100.00;99604.81;109385;1251;58903;-75
2023/08/22 02:00:55;;;;;;;8.90;6.40;;;;;;;21.21;100.00;99609.42;109371;1251;74657;-74
2023/08/22 02:03:23;;;;;;;9.20;6.70;;;;;;;21.18;100.00;99612.70;109403;1251;69527;-74
2023/08/22 02:05:51;;;;;;;10.70;6.50;;;;;;;21.14;100.00;99610.27;109415;1253;72931;-74
2023/08/22 02:08:18;;;;;;;8.20;6.00;;;;;;;21.10;100.00;99612.36;109386;1252;59257;-74
2023/08/22 02:10:46;;;;;;;7.00;6.30;;;;;;;21.03;100.00;99611.80;109440;1253;58927;-76
2023/08/22 02:13:14;;;;;;;6.10;5.50;;;;;;;21.00;100.00;99613.49;109394;1251;74596;-75
2023/08/22 02:15:41;;;;;;;6.10;5.50;;;;;;;20.95;100.00;99618.00;109391;1251;70980;-74
2023/08/22 02:18:09;;;;;;;6.70;5.90;;;;;;;20.89;100.00;99622.02;109361;1251;72695;-75
2023/08/22 02:20:36;;;;;;;6.00;5.50;;;;;;;20.84;100.00;99628.48;108682;1251;1015500;-74
2023/08/22 02:23:04;;;;;;;6.90;5.40;;;;;;;20.79;100.00;99627.21;109431;1251;60096;-74
2023/08/22 02:25:31;;;;;;;11.10;5.20;;;;;;;20.77;100.00;99629.99;109455;1251;74691;-76
2023/08/22 02:27:59;;;;;;;9.70;5.80;;;;;;;20.72;100.00;99627.17;109472;1251;72301;-75
2023/08/22 02:30:26;;;;;;;6.90;5.20;;;;;;;20.64;100.00;99631.32;109433;1251;72454;-75
2023/08/22 02:32:54;;;;;;;7.70;6.50;;;;;;;20.59;100.00;99636.11;109413;1252;61811;-76
2023/08/22 02:35:22;;;;;;;8.80;6.20;;;;;;;20.56;100.00;99637.45;109361;1251;60094;-75
2023/08/22 02:37:49;;;;;;;6.70;6.00;;;;;;;20.52;100.00;99638.64;109427;1251;74738;-75
2023/08/22 02:40:17;;;;;;;8.90;5.80;;;;;;;20.48;100.00;99640.17;109371;1251;71881;-74
2023/08/22 02:42:44;;;;;;;9.40;5.30;;;;;;;20.45;100.00;99640.42;109431;1251;71521;-74
2023/08/22 02:45:12;;;;;;;5.70;5.00;;;;;;;20.40;100.00;99641.06;109371;1253;61173;-74
2023/08/22 02:47:39;;;;;;;9.30;5.50;;;;;;;20.36;100.00;99640.12;109426;1251;60010;-75
2023/08/22 02:50:08;;;;;;;8.20;5.70;;;;;;;20.35;100.00;99647.71;109430;1251;73436;-74
2023/08/22 02:52:36;;;;;;;7.60;5.80;;;;;;;20.33;100.00;99647.12;109394;1251;70736;-75
2023/08/22 02:55:04;;;;;;;8.00;5.80;;;;;;;20.33;100.00;99652.87;109411;1255;72727;-74
2023/08/22 02:57:31;;;;;;;7.50;5.80;;;;;;;20.30;100.00;99656.40;109365;1251;60858;-75
2023/08/22 02:59:58;;;;;;;11.50;6.10;;;;;;;20.28;100.00;99657.30;109431;1251;60517;-75
2023/08/22 03:02:26;;;;;;;9.60;5.70;;;;;;;20.25;100.00;99661.05;109322;1253;74652;-75
2023/08/22 03:04:54;;;;;;;10.20;6.90;;;;;;;20.23;100.00;99663.20;109391;1251;70927;-75
2023/08/22 03:07:22;;;;;;;10.10;6.20;;;;;;;20.20;100.00;99662.13;109335;1253;72664;-75
2023/08/22 03:09:49;;;;;;;9.60;6.40;;;;;;;20.19;100.00;99659.92;109379;1253;61043;-75
2023/08/22 03:12:17;;;;;;;15.10;7.90;;;;;;;20.20;100.00;99658.41;109342;1251;59533;-75
2023/08/22 03:14:45;;;;;;;15.70;7.80;;;;;;;20.19;100.00;99661.30;109438;1251;74654;-75
2023/08/22 03:17:13;;;;;;;16.20;7.80;;;;;;;20.17;100.00;99658.31;109324;1251;70973;-75
2023/08/22 03:19:41;;;;;;;16.30;8.30;;;;;;;20.14;100.00;99664.16;109406;1251;71721;-76
2023/08/22 03:22:09;;;;;;;16.00;8.20;;;;;;;20.15;100.00;99656.85;109357;1257;60514;-75
2023/08/22 03:24:36;;;;;;;16.20;7.70;;;;;;;20.14;100.00;99657.63;109405;1251;60188;-75
2023/08/22 03:27:04;;;;;;;17.00;8.30;;;;;;;20.12;100.00;99664.01;109338;1251;74653;-74
2023/08/22 03:29:32;;;;;;;13.00;7.80;;;;;;;20.09;100.00;99670.24;109354;1251;70821;-75
2023/08/22 03:31:59;;;;;;;15.20;8.00;;;;;;;20.09;100.00;99670.98;109345;1253;72737;-74
2023/08/22 03:34:28;;;;;;;15.50;8.00;;;;;;;20.09;100.00;99670.09;109343;1252;60013;-75
2023/08/22 03:36:55;;;;;;;16.00;7.50;;;;;;;20.09;100.00;99667.78;109369;1251;59074;-74
2023/08/22 03:39:23;;;;;;;9.40;6.10;;;;;;;20.08;100.00;99671.91;109331;1253;74629;-75
2023/08/22 03:41:51;;;;;;;10.10;5.20;;;;;;;20.08;100.00;99669.43;109356;1251;70880;-76
2023/08/22 03:44:18;;;;;;;13.50;5.10;;;;;;;20.05;100.00;99669.06;109304;1251;73226;-75
2023/08/22 03:46:47;;;;;;;4.60;4.20;;;;;;;20.01;100.00;99670.77;109379;1251;58983;-75
2023/08/22 03:49:35;;;;;;;5.20;4.00;;;;;;;20.00;100.00;99667.87;109348;1253;58906;-75
2023/08/22 03:52:03;;;;;;;7.20;4.40;;;;;;;19.98;100.00;99664.95;109431;1251;73430;-75
2023/08/22 03:54:31;;;;;;;4.90;4.10;;;;;;;19.96;100.00;99672.58;109347;1253;70844;-75
2023/08/22 03:56:59;;;;;;;5.90;3.50;;;;;;;19.95;100.00;99674.44;109359;1254;72709;-75
2023/08/22 03:59:27;;;;;;;5.00;3.80;;;;;;;19.96;100.00;99675.83;109326;1251;59381;-74
2023/08/22 04:01:54;;;;;;;5.90;3.90;;;;;;;19.98;100.00;99675.67;109355;1251;59248;-75
2023/08/22 04:04:22;;;;;;;4.70;3.80;;;;;;;19.98;100.00;99673.17;109427;1255;74573;-74
2023/08/22 04:06:49;;;;;;;7.80;3.60;;;;;;;19.97;100.00;99676.26;109458;1251;71123;-75
2023/08/22 04:09:17;;;;;;;6.10;4.10;;;;;;;19.96;100.00;99679.91;109398;1253;71034;-75
2023/08/22 04:11:44;;;;;;;5.40;4.10;;;;;;;19.97;100.00;99678.38;109341;1251;59582;-74
2023/08/22 04:14:12;;;;;;;4.30;3.60;;;;;;;19.97;100.00;99677.64;109385;1251;60032;-74
2023/08/22 04:16:39;;;;;;;6.20;3.90;;;;;;;20.00;100.00;99678.35;109393;1251;74607;-75
2023/08/22 04:19:07;;;;;;;6.60;3.80;;;;;;;20.00;100.00;99676.02;109421;1251;71394;-74
2023/08/22 04:21:34;;;;;;;5.50;4.30;;;;;;;20.00;100.00;99679.91;109421;1251;72803;-75
2023/08/22 04:24:02;;;;;;;7.20;4.30;;;;;;;20.01;100.00;99674.88;109384;1251;60096;-75
2023/08/22 04:26:29;;;;;;;5.10;4.30;;;;;;;20.02;100.00;99676.45;109379;1251;59011;-74
2023/08/22 04:28:57;;;;;;;5.20;4.30;;;;;;;20.04;100.00;99678.25;109384;1251;74658;-75
2023/08/22 04:31:25;;;;;;;8.70;3.90;;;;;;;20.06;100.00;99680.82;109368;1251;69980;-75
2023/08/22 04:33:52;;;;;;;7.20;4.70;;;;;;;20.08;100.00;99683.15;109325;1251;72716;-75
2023/08/22 04:36:20;;;;;;;5.50;4.10;;;;;;;20.09;100.00;99679.32;109343;1251;60716;-75
2023/08/22 04:38:49;;;;;;;6.20;3.90;;;;;;;20.12;100.00;99682.14;109416;1251;59155;-75
2023/08/22 04:41:19;;;;;;;9.60;4.70;;;;;;;20.15;100.00;99676.26;109370;1251;73852;-75
2023/08/22 04:44:22;;;;;;;6.50;4.30;;;;;;;20.16;100.00;99680.59;109260;1257;69840;-75
2023/08/22 04:46:49;;;;;;;16.10;5.10;;;;;;;20.18;100.00;99677.06;109427;1251;72685;-76
2023/08/22 04:49:17;;;;;;;9.70;4.70;;;;;;;20.23;100.00;99671.58;109297;1251;60447;-75
2023/08/22 04:51:44;;;;;;;9.20;4.00;;;;;;;20.27;100.00;99671.42;109454;1251;59099;-75
2023/08/22 04:54:12;;;;;;;6.40;4.10;;;;;;;20.32;100.00;99668.44;109429;1251;73334;-76
2023/08/22 04:56:39;;;;;;;7.90;4.50;;;;;;;20.36;100.00;99665.77;109391;1251;69931;-75
2023/08/22 04:59:08;;;;;;;8.30;4.40;;;;;;;20.42;100.00;99664.52;109350;1251;72688;-74
2023/08/22 05:01:35;;;;;;;7.20;3.90;;;;;;;20.46;100.00;99658.14;109321;1251;59472;-75
2023/08/22 05:04:03;;;;;;;14.00;5.00;;;;;;;20.53;100.00;99658.16;109374;1256;59317;-75
2023/08/22 05:06:31;;;;;;;7.70;4.10;;;;;;;20.59;100.00;99657.69;109323;1251;74610;-75
2023/08/22 05:08:58;;;;;;;9.10;4.10;;;;;;;20.64;100.00;99658.45;109351;1251;69347;-75
2023/08/22 05:11:26;;;;;;;6.90;4.50;;;;;;;20.69;100.00;99664.66;109340;1251;72651;-74
2023/08/22 05:13:53;;;;;;;11.40;5.10;;;;;;;20.75;100.00;99662.75;109331;1251;59764;-75
2023/08/22 05:16:21;;;;;;;12.80;4.40;;;;;;;20.82;100.00;99659.80;109357;1251;58955;-75
2023/08/22 05:18:49;;;;;;;8.40;4.40;;;;;;;20.89;100.00;99665.34;109309;1251;74195;-74
2023/08/22 05:21:16;;;;;;;6.90;3.70;;;;;;;20.95;100.00;99659.90;109396;1251;69820;-76
2023/08/22 05:23:44;;;;;;;3.80;3.50;;;;;;;21.00;100.00;99661.11;109333;1256;72648;-74
2023/08/22 05:26:14;;;;;;;4.90;3.30;;;;;;;21.05;100.00;99661.29;109376;1251;59302;-75
2023/08/22 05:28:42;;;;;;;5.80;3.90;;;;;;;21.11;100.00;99660.98;109337;1256;58905;-74
2023/08/22 05:31:17;;;;;;;5.50;3.80;;;;;;;21.18;100.00;99664.92;109432;1251;75094;-75
2023/08/22 05:33:45;;;;;;;10.70;4.20;;;;;;;21.24;100.00;99663.94;109390;1251;71375;-75
2023/08/22 05:36:13;;;;;;;8.30;3.90;;;;;;;21.32;100.00;99667.06;109369;1251;71539;-74
2023/08/22 05:38:41;;;;;;;10.00;4.10;;;;;;;21.42;100.00;99667.02;109330;1253;61668;-75
2023/08/22 05:41:08;;;;;;;4.70;3.70;;;;;;;21.50;100.00;99662.79;109243;1251;59434;-75
2023/08/22 05:43:36;;;;;;;5.60;4.30;;;;;;;21.56;100.00;99668.25;109326;1251;73209;-75
2023/08/22 05:46:04;;;;;;;8.50;4.50;;;;;;;21.59;100.00;99671.05;109296;1251;69777;-75
2023/08/22 05:48:32;;;;;;;8.00;4.50;;;;;;;21.56;100.00;99670.08;109308;1251;72498;-75
2023/08/22 05:51:02;;;;;;;7.50;4.90;;;;;;;21.51;100.00;99665.05;109324;1251;61688;-76
2023/08/22 05:53:30;;;;;;;11.70;4.80;;;;;;;21.48;100.00;99664.80;109325;1251;58971;-76
2023/08/22 05:55:57;;;;;;;9.20;4.30;;;;;;;21.43;100.00;99662.23;109356;1251;74710;-76
2023/08/22 05:58:25;;;;;;;5.00;4.40;;;;;;;21.44;100.00;99667.52;109430;1251;71536;-75
2023/08/22 06:00:54;;;;;;;5.10;4.60;;;;;;;21.47;100.00;99663.20;109416;1251;71420;-75
2023/08/22 06:03:22;;;;;;;7.80;4.40;;;;;;;21.55;100.00;99662.45;109333;1251;60563;-75
2023/08/22 06:05:50;;;;;;;5.50;4.40;;;;;;;21.63;100.00;99656.52;109366;1251;59472;-75
2023/08/22 06:08:18;;;;;;;4.70;3.80;;;;;;;21.69;100.00;99654.58;109408;1251;75094;-76
2023/08/22 06:10:46;;;;;;;11.80;4.10;;;;;;;21.74;100.00;99646.70;109297;1251;70959;-75
2023/08/22 06:13:14;;;;;;;5.90;3.80;;;;;;;21.81;100.00;99642.22;109266;1251;72742;-74
2023/08/22 06:15:42;;;;;;;6.80;3.80;;;;;;;21.85;100.00;99642.23;109290;1251;59832;-76
2023/08/22 06:18:11;;;;;;;6.50;4.00;;;;;;;21.90;100.00;99642.92;109328;1251;60008;-75
2023/08/22 06:20:40;;;;;;;5.00;3.70;;;;;;;21.96;100.00;99640.53;109310;1251;74699;-74
2023/08/22 06:23:07;;;;;;;3.90;3.50;;;;;;;21.98;100.00;99633.05;109327;1251;71164;-75
2023/08/22 06:25:36;;;;;;;6.50;3.60;;;;;;;21.97;100.00;99639.70;109403;1251;71382;-75
2023/08/22 06:28:04;;;;;;;6.40;3.30;;;;;;;21.95;100.00;99630.79;109369;1251;60149;-76
2023/08/22 06:30:32;;;;;;;6.30;3.10;;;;;;;21.94;100.00;99628.18;109305;1251;60204;-76
2023/08/22 06:33:00;;;;;;;7.00;2.80;;;;;;;21.96;100.00;99624.63;109302;1251;74660;-75
2023/08/22 06:35:28;;;;;;;4.20;3.10;;;;;;;22.00;100.00;99619.63;109391;1251;70238;-76
2023/08/22 06:37:55;;;;;;;5.70;2.80;;;;;;;22.06;100.00;99619.81;109437;1253;71288;-75
2023/08/22 06:40:24;;;;;;;8.30;2.60;;;;;;;22.11;100.00;99611.40;109298;1251;60521;-75
2023/08/22 06:42:52;;;;;;;8.10;2.10;;;;;;;22.17;100.00;99614.32;109312;1251;59504;-75
2023/08/22 06:45:29;;;;;;;7.10;2.40;;;;;;;22.26;100.00;99608.41;109299;1251;73479;-75
2023/08/22 06:47:57;;;;;;;3.70;1.80;;;;;;;22.35;100.00;99599.88;109452;1251;71167;-75
2023/08/22 06:50:24;;;;;;;4.80;3.00;;;;;;;22.39;100.00;99600.77;109412;1251;71454;-75
2023/08/22 06:52:52;;;;;;;3.80;2.50;;;;;;;22.44;100.00;99603.75;109393;1251;60395;-75
2023/08/22 06:55:19;;;;;;;10.80;2.40;;;;;;;22.48;100.00;99595.53;109423;1251;59180;-76
2023/08/22 06:57:47;;;;;;;11.40;2.70;;;;;;;22.52;100.00;99589.52;109401;1251;74666;-75
2023/08/22 07:00:16;;;;;;;9.30;2.60;;;;;;;22.58;100.00;99589.93;109429;1251;70013;-75
2023/08/22 07:02:45;;;;;;;14.00;2.70;;;;;;;22.61;100.00;99586.42;109374;1251;73121;-75
2023/08/22 07:05:15;;;;;;;14.30;2.60;;;;;;;22.63;100.00;99586.05;109411;1251;60031;-76
2023/08/22 07:07:42;;;;;;;4.50;2.50;;;;;;;22.69;100.00;99587.77;109349;1251;59153;-76
2023/08/22 07:10:11;;;;;;;7.40;3.10;;;;;;;22.75;100.00;99587.77;109383;1251;74604;-75
2023/08/22 07:12:41;;;;;;;7.30;2.80;;;;;;;22.79;100.00;99584.58;109391;1251;72995;-75
2023/08/22 07:15:09;;;;;;;13.40;2.40;;;;;;;22.83;100.00;99595.15;109351;1256;71395;-76
2023/08/22 07:17:37;;;;;;;4.40;1.90;;;;;;;22.86;100.00;99590.94;109416;1251;60145;-75
2023/08/22 07:20:07;;;;;;;13.70;2.30;;;;;;;22.89;100.00;99599.13;109414;1251;60512;-75
2023/08/22 07:22:35;;;;;;;10.00;2.60;;;;;;;22.93;100.00;99589.48;109368;1251;74661;-76
2023/08/22 07:25:03;;;;;;;7.30;2.20;;;;;;;23.02;100.00;99589.63;109445;1251;70780;-75
2023/08/22 07:27:30;;;;;;;5.50;1.60;;;;;;;23.14;100.00;99586.27;109403;1251;71403;-75
2023/08/22 07:29:58;;;;;;;10.80;2.00;;;;;;;23.27;100.00;99583.88;109414;1251;60053;-75
2023/08/22 07:32:25;;;;;;;3.60;1.80;;;;;;;23.37;100.00;99585.19;109387;1251;58998;-76
2023/08/22 07:34:53;;;;;;;4.50;1.40;;;;;;;23.44;100.00;99578.71;109396;1251;74027;-75
2023/08/22 07:37:20;;;;;;;4.60;2.10;;;;;;;23.50;100.00;99580.35;109412;1251;69815;-75
2023/08/22 07:39:48;;;;;;;5.60;2.20;;;;;;;23.59;100.00;99583.45;109377;1252;72774;-76
2023/08/22 07:42:16;;;;;;;10.90;1.70;;;;;;;23.62;100.00;99588.27;109376;1251;59091;-75
2023/08/22 07:44:44;;;;;;;6.80;1.50;;;;;;;23.61;100.00;99579.36;109465;1251;60645;-76
2023/08/22 07:47:11;;;;;;;16.70;1.60;;;;;;;23.66;100.00;99583.92;109430;1251;73344;-75
2023/08/22 07:49:38;;;;;;;12.60;1.50;;;;;;;23.69;100.00;99579.39;109438;1251;72058;-76
2023/08/22 07:52:06;;;;;;;7.60;1.60;;;;;;;23.74;100.00;99582.33;109373;1251;74122;-75
2023/08/22 07:54:34;;;;;;;6.60;1.10;;;;;;;23.80;100.00;99580.21;109380;1251;59290;-74
2023/08/22 07:57:01;;;;;;;5.60;1.30;;;;;;;23.80;100.00;99578.27;109440;1251;60049;-76
2023/08/22 07:59:44;;;;;;;2.40;1.20;;;;;;;23.80;100.00;99582.86;109370;1251;73542;-76
2023/08/22 08:02:11;;;;;;;3.70;1.30;;;;;;;23.89;100.00;99579.98;109418;1251;69769;-75
2023/08/22 08:04:39;;;;;;;2.70;1.00;;;;;;;23.97;100.00;99583.02;109379;1252;72763;-75
2023/08/22 08:07:06;;;;;;;5.90;1.40;;;;;;;24.03;100.00;99577.40;109451;1251;59046;-75
2023/08/22 08:09:34;;;;;;;13.00;1.40;;;;;;;24.12;100.00;99586.28;109420;1251;59299;-76
2023/08/22 08:12:03;;;;;;;11.10;1.80;;;;;;;24.16;100.00;99591.39;109440;1251;74651;-75
2023/08/22 08:14:32;;;;;;;16.60;2.40;;;;;;;24.13;100.00;99587.30;109434;1251;71113;-75
2023/08/22 08:17:00;;;;;;;8.90;1.80;;;;;;;24.19;100.00;99593.76;109377;1251;72531;-75
2023/08/22 08:19:27;;;;;;;11.80;1.70;;;;;;;24.24;100.00;99588.61;109404;1251;60064;-75
2023/08/22 08:21:55;;;;;;;6.70;1.10;;;;;;;24.27;100.00;99586.77;109419;1251;60887;-75
2023/08/22 08:24:22;;;;;;;3.00;1.00;;;;;;;24.30;100.00;99590.41;109408;1251;65677;-76
2023/08/22 08:26:50;;;;;;;9.30;1.40;;;;;;;24.35;100.00;99585.69;109378;1251;69527;-76
2023/08/22 08:29:18;;;;;;;20.80;2.20;;;;;;;24.40;100.00;99593.48;109385;1251;72675;-76
2023/08/22 08:31:47;;;;;;;9.90;1.30;;;;;;;24.43;100.00;99591.19;109370;1251;60747;-75
2023/08/22 08:34:15;;;;;;;10.80;1.80;;;;;;;24.50;100.00;99594.23;109421;1251;59985;-75
2023/08/22 08:36:42;;;;;;;5.20;1.60;;;;;;;24.49;100.00;99582.95;109429;1251;75019;-74
2023/08/22 08:39:10;;;;;;;8.50;1.60;;;;;;;24.49;100.00;99581.89;109421;1251;70783;-75
2023/08/22 08:41:37;;;;;;;9.50;1.50;;;;;;;24.55;100.00;99586.25;109381;1253;73116;-75
2023/08/22 08:44:05;;;;;;;5.70;1.80;;;;;;;24.59;100.00;99587.83;109363;1251;58991;-75
2023/08/22 08:46:32;;;;;;;6.80;1.60;;;;;;;24.70;100.00;99583.17;109409;1251;59953;-75
2023/08/22 08:49:00;;;;;;;4.00;1.50;;;;;;;24.85;100.00;99585.44;109407;1251;73422;-75
2023/08/22 08:51:28;;;;;;;8.00;1.50;;;;;;;24.90;100.00;99582.80;109442;1251;70474;-75
2023/08/22 08:53:56;;;;;;;11.80;1.50;;;;;;;24.92;100.00;99582.65;109213;1251;72654;-75
2023/08/22 08:56:23;;;;;;;18.50;2.10;;;;;;;25.02;99.08;99591.59;109252;1251;59014;-75
2023/08/22 08:58:51;;;;;;;9.50;1.20;;;;;;;25.08;97.88;99591.17;109382;1251;58983;-75
2023/08/22 09:01:18;;;;;;;12.00;1.40;;;;;;;25.01;90.69;99595.73;109442;1251;74581;-75
2023/08/22 09:03:46;;;;;;;9.70;1.60;;;;;;;24.91;98.75;99579.50;109411;1251;70000;-75
2023/08/22 09:06:14;;;;;;;7.50;1.80;;;;;;;24.93;99.24;99583.78;109384;1255;73145;-75
2023/08/22 09:09:08;;;;;;;20.50;2.40;;;;;;;24.99;98.97;99591.15;109375;1251;58982;-76
2023/08/22 09:11:36;;;;;;;13.20;2.20;;;;;;;25.06;93.29;99596.55;109337;1251;58996;-75
2023/08/22 09:14:11;;;;;;;10.90;2.00;;;;;;;25.06;91.34;99586.15;109244;1251;74674;-76
2023/08/22 09:16:38;;;;;;;13.60;3.40;;;;;;;25.06;97.32;99586.00;108619;1251;1002584;-75
2023/08/22 09:19:07;;;;;;;4.80;2.10;;;;;;;25.14;98.98;99584.86;109372;1252;72658;-75
2023/08/22 09:21:34;;;;;;;10.90;1.90;;;;;;;25.23;93.34;99580.58;109392;1251;60079;-74
2023/08/22 09:24:09;;;;;;;12.70;1.60;;;;;;;25.33;97.19;99593.39;109395;1251;59124;-75
2023/08/22 09:26:37;;;;;;;10.60;1.60;;;;;;;25.42;82.53;99592.46;109436;1251;73446;-75
2023/08/22 09:29:05;;;;;;;6.70;1.70;;;;;;;25.42;83.08;99589.12;109429;1251;70824;-75
2023/08/22 09:31:36;;;;;;;26.00;2.60;;;;;;;25.38;80.35;99598.06;109398;1251;72634;-75
2023/08/22 09:34:11;;;;;;;17.50;2.60;;;;;;;25.36;77.27;99596.98;109368;1251;60604;-75
2023/08/22 09:36:47;;;;;;;;;;;;;;;25.37;78.53;99595.83;109417;1251;60117;-76
2023/08/22 09:39:24;;;;;;;8.90;1.90;;;;;;;25.39;76.20;99589.75;109409;1251;74703;-75
2023/08/22 09:41:54;;;;;;;17.80;1.70;;;;;;;25.43;81.36;99592.00;109409;1252;69629;-75
2023/08/22 09:44:24;;;;;;;13.20;2.90;;;;;;;25.57;75.95;99588.38;109405;1251;71230;-75
2023/08/22 09:46:52;;;;;;;7.20;1.20;;;;;;;25.61;70.95;99592.45;109353;1252;59921;-75
2023/08/22 09:49:20;;;;;;;6.30;1.40;;;;;;;25.60;69.89;99592.17;109432;1251;60731;-75
2023/08/22 09:51:49;;;;;;;12.30;1.10;;;;;;;25.63;65.62;99588.56;109396;1251;73402;-75
2023/08/22 09:54:17;;;;;;;2.50;1.20;;;;;;;25.64;64.71;99585.59;109379;1251;69857;-75
2023/08/22 09:56:45;;;;;;;7.20;0.90;;;;;;;25.62;67.28;99583.77;109363;1252;72637;-75
2023/08/22 09:59:16;;;;;;;10.70;1.10;;;;;;;25.60;70.84;99584.83;109423;1251;60606;-75
2023/08/22 10:01:43;;;;;;;4.90;1.10;;;;;;;25.68;75.46;99585.52;109437;1251;58946;-75
2023/08/22 10:04:13;;;;;;;8.10;1.30;;;;;;;25.82;77.00;99586.14;109285;1251;65652;-76
2023/08/22 10:06:41;;;;;;;14.30;1.30;;;;;;;25.93;66.71;99583.27;109417;1251;69789;-75
2023/08/22 10:09:14;;;;;;;10.10;1.60;;;;;;;25.93;64.58;99579.33;109420;1251;63857;-76
2023/08/22 10:11:45;;;;;;;15.00;1.30;;;;;;;25.92;63.02;99576.50;109281;1251;60004;-74
2023/08/22 10:14:20;;;;;;;5.90;1.20;;;;;;;25.92;64.30;99591.80;109373;1251;59052;-74
2023/08/22 10:16:48;;;;;;;13.30;1.10;;;;;;;25.89;59.30;99586.67;109303;1251;74613;-76
2023/08/22 10:19:15;;;;;;;5.30;1.00;;;;;;;25.88;59.12;99585.57;109389;1251;70882;-75
2023/08/22 10:21:45;;;;;;;2.50;1.10;;;;;;;25.93;62.07;99584.35;109374;1252;70762;-75
2023/08/22 10:24:21;;;;;;;2.60;1.10;;;;;;;26.05;62.25;99576.56;109345;1251;60129;-75
2023/08/22 10:27:04;;;;;;;7.10;1.40;;;;;;;26.13;62.52;99580.78;109373;1251;59328;-74
2023/08/22 10:29:36;;;;;;;3.50;1.00;;;;;;;26.24;62.27;99580.08;109338;1251;73465;-75
2023/08/22 10:32:04;;;;;;;7.60;1.40;;;;;;;26.31;59.67;99579.75;109306;1251;69539;-75
2023/08/22 10:34:34;;;;;;;3.20;1.30;;;;;;;26.37;59.13;99589.56;109382;1252;72469;-74
2023/08/22 10:37:04;;;;;;;5.10;1.00;;;;;;;26.34;57.37;99581.77;109396;1251;60125;-75
2023/08/22 10:39:37;;;;;;;8.20;1.70;;;;;;;26.27;59.22;99581.33;109411;1251;59005;-75
2023/08/22 10:42:17;;;;;;;5.90;1.30;;;;;;;26.29;64.04;99589.21;109433;1251;74652;-75
2023/08/22 10:45:02;;;;;;;7.20;1.20;;;;;;;26.43;60.58;99582.84;109408;1250;70964;-74
2023/08/22 10:47:33;;;;;;;13.70;1.40;;;;;;;26.61;65.12;99574.76;109317;1253;72775;-74
2023/08/22 10:50:00;;;;;;;5.40;1.10;;;;;;;26.75;65.94;99574.14;109268;1251;60248;-74
2023/08/22 10:52:43;;;;;;;8.20;1.20;;;;;;;26.89;68.55;99573.58;109400;1251;60071;-74
2023/08/22 10:55:12;;;;;;;3.80;0.90;;;;;;;26.94;61.53;99580.98;109432;1250;75667;-75
2023/08/22 10:57:46;;;;;;;7.60;1.00;;;;;;;26.84;61.90;99589.55;109446;1251;68944;-76
2023/08/22 11:00:21;;;;;;;3.60;1.00;;;;;;;26.86;62.01;99589.69;109394;1251;71498;-75
2023/08/22 11:02:53;;;;;;;5.70;1.00;;;;;;;26.90;60.12;99582.30;109401;1251;60095;-75
2023/08/22 11:05:20;;;;;;;6.80;0.90;;;;;;;26.92;62.11;99573.77;109425;1251;60143;-75
2023/08/22 11:07:48;;;;;;;10.00;1.20;;;;;;;26.95;59.40;99575.83;109419;1251;74662;-75
2023/08/22 11:10:20;;;;;;;3.40;0.90;;;;;;;26.98;55.43;99575.65;109369;1252;69977;-75
2023/08/22 11:12:49;;;;;;;8.50;1.10;;;;;;;26.93;53.01;99577.16;109379;1251;71476;-75
2023/08/22 11:15:17;;;;;;;2.70;1.00;;;;;;;26.71;56.41;99573.74;109411;1251;60076;-75
2023/08/22 11:17:45;;;;;;;2.20;0.80;;;;;;;26.48;59.09;99571.16;109402;1251;59444;-75
2023/08/22 11:20:14;;;;;;;6.00;1.40;;;;;;;26.31;64.27;99576.27;109432;1250;73352;-75
2023/08/22 11:22:42;;;;;;;5.00;1.70;;;;;;;26.35;62.60;99576.85;109353;1250;62315;-76
2023/08/22 11:25:11;;;;;;;3.70;0.80;;;;;;;26.47;59.39;99572.01;109379;1251;73107;-75